createdAt,value
2019-03-12T00:00:54.614Z,82.07
2019-03-12T00:03:21.242Z,82.52
2019-03-12T00:05:48.072Z,81.62
2019-03-12T00:08:14.664Z,81.78
2019-03-12T00:10:41.515Z,82.17
2019-03-12T00:13:08.105Z,82.08
2019-03-12T00:15:34.724Z,82.21
2019-03-12T00:18:01.472Z,82.64
2019-03-12T00:20:28.161Z,82.34
2019-03-12T00:22:54.878Z,81.86
2019-03-12T00:25:21.868Z,81.92
2019-03-12T00:27:48.490Z,82.04
2019-03-12T00:30:15.199Z,81.87
2019-03-12T00:32:41.837Z,81.77
2019-03-12T00:35:08.632Z,81.89
2019-03-12T00:37:35.249Z,82.02
2019-03-12T00:40:02.219Z,81.88
2019-03-12T00:42:28.955Z,81.91
2019-03-12T00:44:55.697Z,82.60
2019-03-12T00:47:22.564Z,82.39
2019-03-12T00:49:49.175Z,82.25
2019-03-12T00:52:15.892Z,82.21
2019-03-12T00:54:42.519Z,81.77
2019-03-12T00:57:09.221Z,80.94
2019-03-12T00:59:35.829Z,81.65
2019-03-12T01:02:02.684Z,81.12
2019-03-12T01:04:29.290Z,80.94
2019-03-12T01:06:56.105Z,81.25
2019-03-12T01:09:22.818Z,81.73
2019-03-12T01:11:49.438Z,81.97
2019-03-12T01:14:16.132Z,82.43
2019-03-12T01:16:42.878Z,82.28
2019-03-12T01:19:09.470Z,82.80
2019-03-12T01:21:36.115Z,82.94
2019-03-12T01:24:02.965Z,83.22
2019-03-12T01:26:29.587Z,83.02
2019-03-12T01:28:56.188Z,82.85
2019-03-12T01:31:22.944Z,82.92
2019-03-12T01:33:49.649Z,82.97
2019-03-12T01:36:16.354Z,83.00
2019-03-12T01:38:43.094Z,82.89
2019-03-12T01:41:09.703Z,82.76
2019-03-12T01:43:36.432Z,83.08
2019-03-12T01:46:03.255Z,83.36
2019-03-12T01:48:29.853Z,83.36
2019-03-12T01:50:56.462Z,83.36
2019-03-12T01:53:23.089Z,82.79
2019-03-12T01:55:49.809Z,83.04
2019-03-12T01:58:16.436Z,83.46
2019-03-12T02:00:43.064Z,83.59
2019-03-12T02:03:09.786Z,83.94
2019-03-12T02:05:36.373Z,84.05
2019-03-12T02:08:03.122Z,84.00
2019-03-12T02:10:29.843Z,84.06
2019-03-12T02:12:56.474Z,84.29
2019-03-12T02:15:23.524Z,84.96
2019-03-12T02:17:50.344Z,84.63
2019-03-12T02:20:17.059Z,84.59
2019-03-12T02:22:43.823Z,84.72
2019-03-12T02:25:12.322Z,84.62
2019-03-12T02:27:39.097Z,84.82
2019-03-12T02:30:07.462Z,84.95
2019-03-12T02:32:34.124Z,84.47
2019-03-12T02:35:00.688Z,84.46
2019-03-12T02:37:27.428Z,84.63
2019-03-12T02:39:54.018Z,84.87
2019-03-12T02:42:20.665Z,85.62
2019-03-12T02:44:47.291Z,85.65
2019-03-12T02:47:13.933Z,85.95
2019-03-12T02:49:40.631Z,85.92
2019-03-12T02:52:07.476Z,85.33
2019-03-12T02:54:34.110Z,85.55
2019-03-12T02:57:00.915Z,85.59
2019-03-12T02:59:27.611Z,85.96
2019-03-12T03:01:54.401Z,85.46
2019-03-12T03:04:21.169Z,85.48
2019-03-12T03:07:04.889Z,85.12
2019-03-12T03:09:31.698Z,85.18
2019-03-12T03:11:58.458Z,84.97
2019-03-12T03:14:30.929Z,84.98
2019-03-12T03:16:57.645Z,85.03
2019-03-12T03:19:24.664Z,85.81
2019-03-12T03:21:51.435Z,86.02
2019-03-12T03:24:18.059Z,85.86
2019-03-12T03:26:44.744Z,85.37
2019-03-12T03:29:11.373Z,84.79
2019-03-12T03:31:38.524Z,84.06
2019-03-12T03:34:05.189Z,84.29
2019-03-12T03:36:31.950Z,84.22
2019-03-12T03:38:58.597Z,84.28
2019-03-12T03:41:25.548Z,83.98
2019-03-12T03:43:52.335Z,84.08
2019-03-12T03:46:18.966Z,84.13
2019-03-12T03:48:45.958Z,83.62
2019-03-12T03:51:12.753Z,84.08
2019-03-12T03:53:39.674Z,84.19
2019-03-12T03:56:06.651Z,83.88
2019-03-12T03:58:33.317Z,83.82
2019-03-12T04:01:00.267Z,83.39
2019-03-12T04:03:27.265Z,83.52
2019-03-12T04:05:53.872Z,83.34
2019-03-12T04:08:20.612Z,83.10
2019-03-12T04:10:47.272Z,82.54
2019-03-12T04:13:13.946Z,82.11
2019-03-12T04:15:40.543Z,82.01
2019-03-12T04:18:07.490Z,81.98
2019-03-12T04:20:34.119Z,81.82
2019-03-12T04:23:00.746Z,81.66
2019-03-12T04:25:27.373Z,81.41
2019-03-12T04:27:53.985Z,81.23
2019-03-12T04:30:20.624Z,81.29
2019-03-12T04:32:47.407Z,80.93
2019-03-12T04:35:15.496Z,80.81
2019-03-12T04:37:42.108Z,80.24
2019-03-12T04:40:09.349Z,80.61
2019-03-12T04:42:36.039Z,80.11
2019-03-12T04:45:03.803Z,80.10
2019-03-12T04:47:30.411Z,79.60
2019-03-12T04:49:57.016Z,79.37
2019-03-12T04:52:23.634Z,79.12
2019-03-12T04:54:50.379Z,78.85
2019-03-12T04:57:17.090Z,78.56
2019-03-12T04:59:43.679Z,78.54
2019-03-12T05:02:10.291Z,78.60
2019-03-12T05:04:36.927Z,78.37
2019-03-12T05:07:03.717Z,78.26
2019-03-12T05:09:30.348Z,78.21
2019-03-12T05:11:56.947Z,78.16
2019-03-12T05:14:42.583Z,78.33
2019-03-12T05:17:23.141Z,78.41
2019-03-12T05:19:49.748Z,78.79
2019-03-12T05:22:18.255Z,78.68
2019-03-12T05:24:44.856Z,78.81
2019-03-12T05:27:11.651Z,78.81
2019-03-12T05:29:38.393Z,78.37
2019-03-12T05:32:05.185Z,78.61
2019-03-12T05:34:31.784Z,78.55
2019-03-12T05:36:58.584Z,78.46
2019-03-12T05:39:25.212Z,78.51
2019-03-12T05:41:51.804Z,78.35
2019-03-12T05:44:18.578Z,78.23
2019-03-12T05:46:45.180Z,78.16
2019-03-12T05:49:11.938Z,77.95
2019-03-12T05:51:38.568Z,77.95
2019-03-12T05:54:05.230Z,77.80
2019-03-12T05:56:31.826Z,77.62
2019-03-12T05:58:58.482Z,77.95
2019-03-12T06:01:25.076Z,77.87
2019-03-12T06:03:51.757Z,78.15
2019-03-12T06:06:18.380Z,78.20
2019-03-12T06:08:45.172Z,77.87
2019-03-12T06:11:11.773Z,77.65
2019-03-12T06:13:38.377Z,77.67
2019-03-12T06:16:04.972Z,77.87
2019-03-12T06:18:31.570Z,77.72
2019-03-12T06:20:58.202Z,77.54
2019-03-12T06:23:24.797Z,77.48
2019-03-12T06:25:51.394Z,77.41
2019-03-12T06:28:18.276Z,77.35
2019-03-12T06:30:56.219Z,77.15
2019-03-12T06:33:26.248Z,76.97
2019-03-12T06:36:05.697Z,76.61
2019-03-12T06:38:50.040Z,76.33
2019-03-12T06:41:36.307Z,76.15
2019-03-12T06:44:11.536Z,76.28
2019-03-12T06:46:44.272Z,75.83
2019-03-12T06:49:31.416Z,75.93
2019-03-12T06:52:29.301Z,76.01
2019-03-12T06:55:20.883Z,76.17
2019-03-12T06:58:27.078Z,75.80
2019-03-12T07:01:01.255Z,75.88
2019-03-12T07:03:36.282Z,75.72
2019-03-12T07:06:21.446Z,75.67
2019-03-12T07:08:59.157Z,75.40
2019-03-12T07:11:44.551Z,75.41
2019-03-12T07:14:29.421Z,75.21
2019-03-12T07:17:21.625Z,75.18
2019-03-12T07:19:56.784Z,74.87
2019-03-12T07:22:48.403Z,74.63
2019-03-12T07:25:21.294Z,74.67
2019-03-12T07:28:07.918Z,74.57
2019-03-12T07:30:45.382Z,74.53
2019-03-12T07:33:18.162Z,74.22
2019-03-12T07:35:58.358Z,74.16
2019-03-12T07:38:45.855Z,73.74
2019-03-12T07:41:41.075Z,73.60
2019-03-12T07:44:27.346Z,73.09
2019-03-12T07:47:01.189Z,72.42
2019-03-12T07:49:45.977Z,72.00
2019-03-12T07:52:32.217Z,71.66
2019-03-12T07:55:05.926Z,71.52
2019-03-12T07:57:52.269Z,71.15
2019-03-12T08:00:37.297Z,70.96
2019-03-12T08:03:15.099Z,70.84
2019-03-12T08:06:13.265Z,71.06
2019-03-12T08:08:53.011Z,70.88
2019-03-12T08:11:27.643Z,71.24
2019-03-12T08:14:12.784Z,71.99
2019-03-12T08:17:04.725Z,72.17
2019-03-12T08:19:43.871Z,72.25
2019-03-12T08:22:36.103Z,71.49
2019-03-12T08:25:13.347Z,71.26
2019-03-12T08:27:59.533Z,71.23
2019-03-12T08:30:34.184Z,70.75
2019-03-12T08:33:17.236Z,70.45
2019-03-12T08:35:59.142Z,69.54
2019-03-12T08:38:41.742Z,68.39
2019-03-12T08:41:28.203Z,68.13
2019-03-12T08:44:02.742Z,67.86
2019-03-12T08:46:52.030Z,67.56
2019-03-12T08:49:38.904Z,67.18
2019-03-12T08:52:27.854Z,66.24
2019-03-12T08:55:04.493Z,65.43
2019-03-12T08:58:03.079Z,65.20
2019-03-12T09:00:48.478Z,64.57
2019-03-12T09:03:33.480Z,65.17
2019-03-12T09:06:13.493Z,65.16
2019-03-12T09:08:47.378Z,65.50
2019-03-12T09:11:38.090Z,65.70
2019-03-12T09:14:19.160Z,65.50
2019-03-12T09:16:57.405Z,64.54
2019-03-12T09:19:52.771Z,64.47
2019-03-12T09:22:37.740Z,63.64
2019-03-12T09:25:18.402Z,62.22
2019-03-12T09:28:11.608Z,62.35
2019-03-12T09:30:48.681Z,62.31
2019-03-12T09:33:25.911Z,61.84
2019-03-12T09:36:12.167Z,60.54
2019-03-12T09:38:46.654Z,60.42
2019-03-12T09:41:30.501Z,60.67
2019-03-12T09:44:08.014Z,60.67
2019-03-12T09:46:46.624Z,60.39
2019-03-12T09:49:27.993Z,60.15
2019-03-12T09:52:08.181Z,60.53
2019-03-12T09:54:57.060Z,59.16
2019-03-12T09:57:42.061Z,58.66
2019-03-12T10:00:21.010Z,58.76
2019-03-12T10:03:06.476Z,59.14
2019-03-12T10:05:53.552Z,58.48
2019-03-12T10:08:38.711Z,58.32
2019-03-12T10:11:23.813Z,58.48
2019-03-12T10:14:22.227Z,58.41
2019-03-12T10:17:13.549Z,58.94
2019-03-12T10:20:06.436Z,59.13
2019-03-12T10:22:53.119Z,58.94
2019-03-12T10:25:37.342Z,58.43
2019-03-12T10:28:18.492Z,58.46
2019-03-12T10:30:59.108Z,58.18
2019-03-12T10:33:43.274Z,57.74
2019-03-12T10:36:31.173Z,57.71
2019-03-12T10:40:01.504Z,56.01
2019-03-12T10:42:47.811Z,55.71
2019-03-12T10:45:33.513Z,55.13
2019-03-12T10:48:00.654Z,53.23
2019-03-12T10:50:28.402Z,52.35
2019-03-12T10:52:55.296Z,52.49
2019-03-12T10:55:22.414Z,51.17
2019-03-12T10:57:49.047Z,51.03
2019-03-12T11:00:16.064Z,50.65
2019-03-12T11:02:43.494Z,50.47
2019-03-12T11:05:10.285Z,50.12
2019-03-12T11:07:37.170Z,49.57
2019-03-12T11:10:05.103Z,49.03
2019-03-12T11:12:31.954Z,48.21
2019-03-12T11:14:59.433Z,46.89
2019-03-12T11:17:27.022Z,47.63
2019-03-12T11:19:53.645Z,47.68
2019-03-12T11:22:20.425Z,47.07
2019-03-12T11:24:47.625Z,46.76
2019-03-12T11:27:14.898Z,46.28
2019-03-12T11:29:41.595Z,45.72
2019-03-12T11:32:08.423Z,45.55
2019-03-12T11:34:38.604Z,45.63
2019-03-12T11:37:05.016Z,45.66
2019-03-12T11:39:31.610Z,45.92
2019-03-12T11:41:58.466Z,45.42
2019-03-12T11:44:25.378Z,45.70
2019-03-12T11:46:51.996Z,45.49
2019-03-12T11:49:18.868Z,45.53
2019-03-12T11:51:45.819Z,45.48
2019-03-12T11:54:13.800Z,45.18
2019-03-12T11:56:41.061Z,45.45
2019-03-12T11:59:07.883Z,45.14
2019-03-12T12:01:35.085Z,45.50
2019-03-12T12:04:02.458Z,46.29
2019-03-12T12:06:29.952Z,46.26
2019-03-12T12:08:57.796Z,46.79
2019-03-12T12:11:24.532Z,46.89
2019-03-12T12:13:51.271Z,46.60
2019-03-12T12:16:17.883Z,46.15
2019-03-12T12:18:44.741Z,46.06
2019-03-12T12:21:11.605Z,45.51
2019-03-12T12:23:38.379Z,45.11
2019-03-12T12:26:05.301Z,44.53
2019-03-12T12:28:31.998Z,44.14
2019-03-12T12:30:58.715Z,44.47
2019-03-12T12:33:25.695Z,44.09
2019-03-12T12:35:52.415Z,43.63
2019-03-12T12:38:19.051Z,43.60
2019-03-12T12:40:45.848Z,42.52
2019-03-12T12:43:12.581Z,42.46
2019-03-12T12:45:39.348Z,41.95
2019-03-12T12:48:06.318Z,43.16
2019-03-12T12:50:33.489Z,41.99
2019-03-12T12:53:00.302Z,42.12
2019-03-12T12:55:27.218Z,42.73
2019-03-12T12:57:54.140Z,43.10
2019-03-12T13:00:20.995Z,43.38
2019-03-12T13:02:47.972Z,43.08
2019-03-12T13:05:15.122Z,43.69
2019-03-12T13:07:41.923Z,43.10
2019-03-12T13:10:11.618Z,43.12
2019-03-12T13:12:38.215Z,42.19
2019-03-12T13:15:05.536Z,41.80
2019-03-12T13:17:32.568Z,41.95
2019-03-12T13:19:59.202Z,42.43
2019-03-12T13:22:25.821Z,43.04
2019-03-12T13:24:52.496Z,43.45
2019-03-12T13:27:19.203Z,43.29
2019-03-12T13:29:45.866Z,42.51
2019-03-12T13:32:13.915Z,42.74
2019-03-12T13:34:41.120Z,42.94
2019-03-12T13:37:07.788Z,42.96
2019-03-12T13:39:34.447Z,42.14
2019-03-12T13:42:01.440Z,42.79
2019-03-12T13:44:28.442Z,42.26
2019-03-12T13:46:55.270Z,42.41
2019-03-12T13:49:21.893Z,42.33
2019-03-12T13:51:48.810Z,42.10
2019-03-12T13:54:15.920Z,41.47
2019-03-12T13:56:42.623Z,41.64
2019-03-12T13:59:09.365Z,41.26
2019-03-12T14:01:36.293Z,40.88
2019-03-12T14:04:10.472Z,40.83
2019-03-12T14:06:31.505Z,40.71
2019-03-12T14:08:58.380Z,41.27
2019-03-12T14:11:25.084Z,40.62
2019-03-12T14:13:51.883Z,40.99
2019-03-12T14:16:18.800Z,40.93
2019-03-12T14:18:45.617Z,40.40
2019-03-12T14:21:13.868Z,40.31
2019-03-12T14:23:43.509Z,40.14
2019-03-12T14:26:11.834Z,40.09
2019-03-12T14:28:38.433Z,40.43
2019-03-12T14:31:05.271Z,40.51
2019-03-12T14:33:31.879Z,40.96
2019-03-12T14:35:58.677Z,41.09
2019-03-12T14:38:25.507Z,41.16
2019-03-12T14:40:52.792Z,41.00
2019-03-12T14:43:19.726Z,41.12
2019-03-12T14:45:47.277Z,41.52
2019-03-12T14:48:39.966Z,41.46
2019-03-12T14:51:10.791Z,41.75
2019-03-12T14:53:38.072Z,41.74
2019-03-12T14:56:04.847Z,41.76
2019-03-12T14:58:31.482Z,41.61
2019-03-12T15:00:58.744Z,41.65
2019-03-12T15:03:25.417Z,41.49
2019-03-12T15:05:52.384Z,41.73
2019-03-12T15:08:20.452Z,41.86
2019-03-12T15:10:47.429Z,41.58
2019-03-12T15:13:14.194Z,40.83
2019-03-12T15:15:40.827Z,41.42
2019-03-12T15:18:07.428Z,41.08
2019-03-12T15:20:34.463Z,40.98
2019-03-12T15:23:01.193Z,40.67
2019-03-12T15:25:27.792Z,40.77
2019-03-12T15:27:54.439Z,40.16
2019-03-12T15:30:22.346Z,40.50
2019-03-12T15:32:49.693Z,39.74
2019-03-12T15:35:16.537Z,40.04
2019-03-12T15:37:44.287Z,39.70
2019-03-12T15:40:11.952Z,40.13
2019-03-12T15:42:39.091Z,40.23
2019-03-12T15:45:06.710Z,40.16
2019-03-12T15:47:38.681Z,40.04
2019-03-12T15:50:03.834Z,39.87
2019-03-12T15:52:30.597Z,40.07
2019-03-12T15:54:57.689Z,40.29
2019-03-12T15:57:25.521Z,39.82
2019-03-12T15:59:52.279Z,39.58
2019-03-12T16:02:18.986Z,39.98
2019-03-12T16:04:45.799Z,40.11
2019-03-12T16:07:12.665Z,40.06
2019-03-12T16:09:39.398Z,40.33
2019-03-12T16:12:06.410Z,40.28
2019-03-12T16:14:33.125Z,39.73
2019-03-12T16:17:00.631Z,40.23
2019-03-12T16:19:27.364Z,40.35
2019-03-12T16:21:54.292Z,40.28
2019-03-12T16:24:20.888Z,40.21
2019-03-12T16:26:47.594Z,40.09
2019-03-12T16:29:14.412Z,40.33
2019-03-12T16:31:41.042Z,40.25
2019-03-12T16:34:07.659Z,40.59
2019-03-12T16:36:34.402Z,40.44
2019-03-12T16:39:01.301Z,40.24
2019-03-12T16:41:28.126Z,40.32
2019-03-12T16:43:54.951Z,40.05
2019-03-12T16:46:21.719Z,39.79
2019-03-12T16:48:48.588Z,39.81
2019-03-12T16:51:15.201Z,39.15
2019-03-12T16:53:41.816Z,38.49
2019-03-12T16:56:08.464Z,38.52
2019-03-12T16:58:35.137Z,38.26
2019-03-12T17:01:01.848Z,37.99
2019-03-12T17:03:28.487Z,37.79
2019-03-12T17:05:55.293Z,37.77
2019-03-12T17:08:21.989Z,38.13
2019-03-12T17:10:55.987Z,38.23
2019-03-12T17:13:17.434Z,38.06
2019-03-12T17:15:44.073Z,38.11
2019-03-12T17:18:10.864Z,38.27
2019-03-12T17:20:37.467Z,38.16
2019-03-12T17:23:04.257Z,37.96
2019-03-12T17:25:31.072Z,38.20
2019-03-12T17:27:57.744Z,38.18
2019-03-12T17:30:25.402Z,38.50
2019-03-12T17:32:52.035Z,37.80
2019-03-12T17:35:20.890Z,37.67
2019-03-12T17:37:47.563Z,37.35
2019-03-12T17:40:16.393Z,37.83
2019-03-12T17:42:43.169Z,37.72
2019-03-12T17:45:10.484Z,37.92
2019-03-12T17:47:37.737Z,37.90
2019-03-12T17:50:04.603Z,37.18
2019-03-12T17:52:31.318Z,37.00
2019-03-12T17:54:57.939Z,37.27
2019-03-12T17:57:24.564Z,36.89
2019-03-12T17:59:51.260Z,36.92
2019-03-12T18:02:17.874Z,36.88
2019-03-12T18:04:44.479Z,36.12
2019-03-12T18:07:11.197Z,37.01
2019-03-12T18:09:37.920Z,36.92
2019-03-12T18:12:04.518Z,36.52
2019-03-12T18:14:31.179Z,36.42
2019-03-12T18:16:57.833Z,36.82
2019-03-12T18:19:24.459Z,36.25
2019-03-12T18:21:51.165Z,36.13
2019-03-12T18:24:18.201Z,36.45
2019-03-12T18:26:44.970Z,36.25
2019-03-12T18:29:11.573Z,36.30
2019-03-12T18:31:38.313Z,36.65
2019-03-12T18:34:05.040Z,36.32
2019-03-12T18:36:31.693Z,36.40
2019-03-12T18:39:02.841Z,36.19
2019-03-12T18:41:27.168Z,36.55
2019-03-12T18:43:54.030Z,36.24
2019-03-12T18:46:20.654Z,36.14
2019-03-12T18:48:47.269Z,36.59
2019-03-12T18:51:13.924Z,36.59
2019-03-12T18:53:40.718Z,36.70
2019-03-12T18:56:08.175Z,36.45
2019-03-12T18:58:35.003Z,36.01
2019-03-12T19:01:07.532Z,36.20
2019-03-12T19:03:34.262Z,35.59
2019-03-12T19:06:01.009Z,35.81
2019-03-12T19:08:27.746Z,35.63
2019-03-12T19:10:54.502Z,35.58
2019-03-12T19:13:21.568Z,35.61
2019-03-12T19:15:48.199Z,35.67
2019-03-12T19:18:15.122Z,35.42
2019-03-12T19:20:41.892Z,35.43
2019-03-12T19:23:08.556Z,35.56
2019-03-12T19:25:38.137Z,35.75
2019-03-12T19:28:04.205Z,36.03
2019-03-12T19:30:31.237Z,35.80
2019-03-12T19:33:00.939Z,37.45
2019-03-12T19:35:27.856Z,40.80
2019-03-12T19:37:54.948Z,42.31
2019-03-12T19:40:22.025Z,43.86
2019-03-12T19:42:48.808Z,46.55
2019-03-12T19:45:15.647Z,46.64
2019-03-12T19:47:42.255Z,47.13
2019-03-12T19:50:11.226Z,50.79
2019-03-12T19:52:38.026Z,53.54
2019-03-12T19:55:06.424Z,53.75
2019-03-12T19:57:33.222Z,53.56
2019-03-12T19:59:59.883Z,53.96
2019-03-12T20:02:27.620Z,54.70
2019-03-12T20:04:54.455Z,55.10
2019-03-12T20:07:21.116Z,56.27
2019-03-12T20:10:16.260Z,58.68
2019-03-12T20:13:21.134Z,58.38
2019-03-12T20:16:35.433Z,58.77
2019-03-12T20:19:40.952Z,58.69
2019-03-12T20:22:48.600Z,61.46
2019-03-12T20:26:10.179Z,62.63
2019-03-12T20:29:23.647Z,64.46
2019-03-12T20:32:08.829Z,64.88
2019-03-12T20:35:23.939Z,65.85
2019-03-12T20:38:27.775Z,66.27
2019-03-12T20:41:26.627Z,64.71
2019-03-12T20:44:26.969Z,65.09
2019-03-12T20:47:37.862Z,63.96
2019-03-12T20:50:33.178Z,63.94
2019-03-12T20:53:38.170Z,64.11
2019-03-12T20:56:20.912Z,63.22
2019-03-12T20:59:43.957Z,61.01
2019-03-12T21:02:51.868Z,60.71
2019-03-12T21:05:55.368Z,60.42
2019-03-12T21:09:01.733Z,59.55
2019-03-12T21:12:23.991Z,59.48
2019-03-12T21:15:07.904Z,60.01
2019-03-12T21:18:21.107Z,60.43
2019-03-12T21:21:41.849Z,60.93
2019-03-12T21:24:58.460Z,63.76
2019-03-12T21:27:59.111Z,69.98
2019-03-12T21:30:26.286Z,77.40
2019-03-12T21:32:53.025Z,80.67
2019-03-12T21:35:20.131Z,82.08
2019-03-12T21:37:47.278Z,82.34
2019-03-12T21:40:14.153Z,81.54
2019-03-12T21:42:40.942Z,82.78
2019-03-12T21:45:08.787Z,83.51
2019-03-12T21:47:35.540Z,84.37
2019-03-12T21:50:03.184Z,84.57
2019-03-12T21:52:30.197Z,83.73
2019-03-12T21:54:57.016Z,84.13
2019-03-12T21:57:24.073Z,85.13
2019-03-12T21:59:51.303Z,84.90
2019-03-12T22:02:18.312Z,83.71
2019-03-12T22:04:45.363Z,83.77
2019-03-12T22:07:12.464Z,83.45
2019-03-12T22:09:39.097Z,83.92
2019-03-12T22:12:05.963Z,84.38
2019-03-12T22:14:32.597Z,84.73
2019-03-12T22:17:00.916Z,85.69
2019-03-12T22:19:27.608Z,85.34
2019-03-12T22:22:02.233Z,84.51
2019-03-12T22:24:29.042Z,84.36
2019-03-12T22:26:55.776Z,84.24
2019-03-12T22:29:22.438Z,84.20
2019-03-12T22:31:49.057Z,84.53
2019-03-12T22:34:15.698Z,84.18
2019-03-12T22:36:42.438Z,83.48
2019-03-12T22:39:09.156Z,84.08
2019-03-12T22:41:35.968Z,83.00
2019-03-12T22:44:02.683Z,83.81
2019-03-12T22:48:13.648Z,83.24
2019-03-12T22:52:15.322Z,83.54
2019-03-12T22:56:17.141Z,84.06
2019-03-12T23:00:19.691Z,83.54
2019-03-12T23:04:22.008Z,81.07
2019-03-12T23:08:24.092Z,81.42
2019-03-12T23:12:31.328Z,80.68
2019-03-12T23:16:33.382Z,80.85
2019-03-12T23:20:35.277Z,80.95
2019-03-12T23:24:37.097Z,80.45
2019-03-12T23:28:38.920Z,79.80
2019-03-12T23:32:40.917Z,80.84
2019-03-12T23:36:42.774Z,80.67
2019-03-12T23:40:44.647Z,80.33
2019-03-12T23:44:46.410Z,79.91
2019-03-12T23:48:48.213Z,79.65
2019-03-12T23:52:50.022Z,79.80
2019-03-12T23:56:51.891Z,79.29
